Time;durP1;ratioP1;P1;durP2;ratioP2;P2;SDS_P1;SDS_P2;PMS_P1;PMS_P2;Temp;Humidity;BMP_temperature;BMP_pressure;BME280_temperature;BME280_humidity;BME280_pressure;Samples;Min_cycle;Max_cycle;Signal;HPM_P1;HPM_P2
2022/01/15 00:01:46;;;;;;;9.27;6.93;;;4.20;92.10;;;;;;933040;150;27948;-73
2022/01/15 00:04:12;;;;;;;10.73;7.37;;;4.20;92.10;;;;;;935105;151;27364;-73
2022/01/15 00:06:39;;;;;;;10.07;7.33;;;4.20;92.20;;;;;;934899;149;27322;-73
2022/01/15 00:09:06;;;;;;;9.50;6.97;;;4.20;92.20;;;;;;935912;152;27313;-72
2022/01/15 00:11:34;;;;;;;10.83;7.50;;;4.20;92.30;;;;;;933606;149;27334;-73
2022/01/15 00:14:12;;;;;;;12.10;8.20;;;4.20;92.40;;;;;;935090;149;27331;-73
2022/01/15 00:17:15;;;;;;;10.57;8.13;;;4.20;92.50;;;;;;933813;151;27384;-73
2022/01/15 00:21:30;;;;;;;12.83;8.00;;;4.30;92.60;;;;;;934673;152;27357;-75
2022/01/15 00:23:56;;;;;;;10.77;7.57;;;4.30;92.60;;;;;;941248;148;27448;-75
2022/01/15 00:26:23;;;;;;;12.53;7.90;;;4.30;92.50;;;;;;942596;148;27425;-75
2022/01/15 00:28:50;;;;;;;11.67;7.73;;;4.30;92.40;;;;;;940591;148;27443;-75
2022/01/15 00:31:16;;;;;;;12.63;8.70;;;4.40;92.50;;;;;;942659;148;27765;-73
2022/01/15 00:33:43;;;;;;;12.17;8.17;;;4.40;92.50;;;;;;940397;151;27256;-72
2022/01/15 00:36:09;;;;;;;11.23;8.47;;;4.40;92.50;;;;;;942250;150;27404;-73
2022/01/15 00:38:36;;;;;;;12.87;8.47;;;4.40;92.30;;;;;;942183;151;27343;-73
2022/01/15 00:41:02;;;;;;;11.50;8.17;;;4.40;92.30;;;;;;942833;150;27359;-73
2022/01/15 00:43:29;;;;;;;12.20;7.90;;;4.30;92.30;;;;;;943563;148;27351;-73
2022/01/15 00:45:58;;;;;;;13.30;8.10;;;4.30;92.30;;;;;;942653;151;27276;-72
2022/01/15 00:48:25;;;;;;;12.37;8.00;;;4.30;92.20;;;;;;941919;151;27468;-73
2022/01/15 00:50:51;;;;;;;12.93;8.53;;;4.30;92.20;;;;;;942014;150;27371;-73
2022/01/15 00:53:18;;;;;;;10.10;8.13;;;4.30;92.10;;;;;;943103;148;27921;-72
2022/01/15 00:55:45;;;;;;;11.27;7.43;;;4.30;92.20;;;;;;940570;151;27319;-72
2022/01/15 00:58:11;;;;;;;9.30;7.63;;;4.30;92.30;;;;;;941852;151;27425;-73
2022/01/15 01:00:38;;;;;;;10.57;7.73;;;4.30;92.40;;;;;;943186;150;27338;-73
2022/01/15 01:03:04;;;;;;;10.20;7.80;;;4.30;92.30;;;;;;942507;148;27370;-73
2022/01/15 01:05:31;;;;;;;10.50;8.17;;;4.30;92.40;;;;;;939928;150;27348;-73
2022/01/15 01:07:57;;;;;;;9.73;6.90;;;4.20;92.30;;;;;;941188;150;27291;-72
2022/01/15 01:23:25;;;;;;;8.60;7.03;;;4.30;92.40;;;;;;942239;148;27489;-74
2022/01/15 01:25:57;;;;;;;9.43;6.63;;;4.30;92.40;;;;;;942099;151;27328;-74
2022/01/15 01:28:30;;;;;;;8.93;6.97;;;4.30;92.40;;;;;;944996;148;27415;-74
2022/01/15 01:31:00;;;;;;;8.60;7.17;;;4.30;92.50;;;;;;941022;151;27382;-74
2022/01/15 01:38:49;;;;;;;9.30;6.33;;;4.40;92.50;;;;;;942834;151;27312;-73
2022/01/15 01:41:07;;;;;;;7.87;6.43;;;4.40;92.50;;;;;;942734;150;27355;-73
2022/01/15 01:46:33;;;;;;;7.37;6.37;;;4.50;92.50;;;;;;943230;150;27336;-73
2022/01/15 01:48:47;;;;;;;7.73;6.30;;;4.50;92.50;;;;;;939871;148;27348;-74
2022/01/15 01:51:31;;;;;;;10.10;6.43;;;4.50;92.50;;;;;;942273;150;28067;-74
2022/01/15 01:53:58;;;;;;;8.00;6.33;;;4.60;92.60;;;;;;940822;151;27349;-74
2022/01/15 01:56:24;;;;;;;8.77;7.17;;;4.60;92.50;;;;;;943137;148;27416;-74
2022/01/15 01:58:51;;;;;;;8.30;6.77;;;4.60;92.50;;;;;;941279;150;27300;-74
2022/01/15 02:01:17;;;;;;;8.20;6.40;;;4.60;92.50;;;;;;943545;148;27364;-74
2022/01/15 02:03:44;;;;;;;8.60;6.37;;;4.70;92.40;;;;;;942875;151;27355;-74
2022/01/15 02:06:10;;;;;;;8.20;6.90;;;4.70;92.40;;;;;;943264;150;27359;-74
2022/01/15 02:08:40;;;;;;;7.60;6.47;;;4.70;92.30;;;;;;941693;148;27302;-74
2022/01/15 02:11:06;;;;;;;9.70;7.00;;;4.80;92.20;;;;;;940644;151;27400;-74
2022/01/15 02:13:33;;;;;;;8.33;6.33;;;4.80;92.10;;;;;;941563;150;27339;-74
2022/01/15 02:15:59;;;;;;;9.10;6.93;;;4.80;92.00;;;;;;941330;148;27477;-74
2022/01/15 02:18:26;;;;;;;8.37;6.73;;;4.80;92.00;;;;;;941481;151;27362;-74
2022/01/15 02:23:41;;;;;;;7.87;6.27;;;4.80;91.90;;;;;;923064;150;27431;-74
2022/01/15 02:26:04;;;;;;;9.50;7.30;;;4.80;91.80;;;;;;940153;148;27408;-74
2022/01/15 02:28:37;;;;;;;9.97;7.30;;;4.70;91.70;;;;;;943729;150;27319;-74
2022/01/15 02:31:09;;;;;;;8.30;6.57;;;4.70;91.40;;;;;;943007;151;27347;-74
2022/01/15 02:33:36;;;;;;;7.97;6.97;;;4.70;91.80;;;;;;941735;150;27961;-73
2022/01/15 02:36:02;;;;;;;8.63;6.37;;;4.70;91.90;;;;;;942932;151;27347;-74
2022/01/15 02:38:29;;;;;;;9.60;6.30;;;4.70;92.00;;;;;;943707;151;27335;-74
2022/01/15 02:40:55;;;;;;;8.47;6.83;;;4.70;92.10;;;;;;941371;151;27319;-73
2022/01/15 02:43:32;;;;;;;10.87;7.20;;;4.70;92.20;;;;;;941730;148;27441;-74
2022/01/15 02:45:56;;;;;;;10.53;7.30;;;4.70;92.20;;;;;;940701;151;27369;-73
2022/01/15 02:48:21;;;;;;;11.23;7.50;;;4.70;92.30;;;;;;942139;150;27317;-73
2022/01/15 02:50:47;;;;;;;14.43;6.93;;;4.70;92.30;;;;;;942849;150;27846;-73
2022/01/15 02:53:16;;;;;;;10.90;7.47;;;4.70;92.30;;;;;;942222;151;27832;-73
2022/01/15 02:55:49;;;;;;;11.03;7.50;;;4.70;92.30;;;;;;942540;148;27456;-73
2022/01/15 02:58:16;;;;;;;8.20;7.17;;;4.70;92.40;;;;;;942103;151;27317;-73
2022/01/15 03:00:42;;;;;;;11.20;7.30;;;4.70;92.40;;;;;;941671;148;27348;-73
2022/01/15 03:03:09;;;;;;;12.17;7.73;;;4.70;92.80;;;;;;942030;151;27301;-73
2022/01/15 03:05:35;;;;;;;11.03;7.73;;;4.70;92.50;;;;;;941963;150;27962;-73
2022/01/15 03:08:02;;;;;;;9.90;7.43;;;4.70;92.50;;;;;;942487;151;27444;-73
2022/01/15 03:10:29;;;;;;;11.67;7.37;;;4.70;92.60;;;;;;942797;150;27330;-73
2022/01/15 03:12:57;;;;;;;10.63;7.17;;;4.70;92.60;;;;;;943063;150;27308;-73
2022/01/15 03:15:22;;;;;;;9.97;7.13;;;4.80;92.60;;;;;;943205;150;27381;-73
2022/01/15 03:17:48;;;;;;;11.53;7.30;;;4.80;92.70;;;;;;941832;150;27445;-73
2022/01/15 03:20:15;;;;;;;10.60;7.00;;;4.80;92.70;;;;;;943548;150;27356;-73
2022/01/15 03:22:41;;;;;;;12.73;7.70;;;4.80;92.70;;;;;;942590;151;27283;-73
2022/01/15 03:25:08;;;;;;;11.10;7.90;;;4.80;92.70;;;;;;936860;151;27314;-73
2022/01/15 03:27:37;;;;;;;13.77;7.57;;;4.80;92.70;;;;;;933564;152;27330;-73
2022/01/15 03:30:04;;;;;;;10.67;7.40;;;4.80;92.80;;;;;;934180;151;27471;-73
2022/01/15 03:32:30;;;;;;;13.73;7.83;;;4.90;92.80;;;;;;934738;151;27424;-73
2022/01/15 03:34:57;;;;;;;10.83;7.80;;;4.90;92.80;;;;;;934598;152;27288;-73
2022/01/15 03:37:24;;;;;;;11.30;8.37;;;4.90;92.80;;;;;;936543;149;27341;-81
2022/01/15 03:39:50;;;;;;;12.50;8.00;;;4.90;92.80;;;;;;936405;152;27334;-73
2022/01/15 03:42:17;;;;;;;12.67;8.57;;;5.00;92.80;;;;;;935292;149;27424;-74
2022/01/15 03:44:43;;;;;;;12.20;8.27;;;5.00;92.70;;;;;;935604;151;27349;-74
2022/01/15 03:47:10;;;;;;;14.27;7.87;;;5.00;92.70;;;;;;935109;152;28212;-74
2022/01/15 03:49:37;;;;;;;13.83;8.53;;;5.00;92.70;;;;;;935251;152;27336;-74
2022/01/15 03:52:03;;;;;;;16.07;9.13;;;5.00;92.60;;;;;;935276;151;27345;-74
2022/01/15 03:54:30;;;;;;;15.17;9.47;;;5.00;92.70;;;;;;935855;152;27340;-74
2022/01/15 03:56:56;;;;;;;12.70;9.00;;;5.00;92.70;;;;;;935973;149;27466;-74
2022/01/15 03:59:23;;;;;;;14.33;8.83;;;5.00;92.70;;;;;;934946;152;27413;-73
2022/01/15 04:01:50;;;;;;;14.60;9.23;;;5.00;92.70;;;;;;934810;151;27327;-74
2022/01/15 04:04:16;;;;;;;15.53;9.70;;;5.00;92.60;;;;;;935506;151;27324;-74
2022/01/15 04:06:43;;;;;;;14.47;8.43;;;5.00;92.60;;;;;;934504;151;27247;-74
2022/01/15 04:09:09;;;;;;;16.30;9.37;;;5.00;92.60;;;;;;934661;152;27454;-74
2022/01/15 04:11:36;;;;;;;13.90;8.83;;;5.00;92.50;;;;;;935564;151;27328;-74
2022/01/15 04:14:02;;;;;;;18.03;9.13;;;5.00;92.50;;;;;;934660;150;27389;-74
2022/01/15 04:16:29;;;;;;;14.10;8.77;;;5.00;92.60;;;;;;936598;150;27471;-74
2022/01/15 04:18:56;;;;;;;15.03;9.20;;;5.00;92.50;;;;;;935089;152;27281;-74
2022/01/15 04:21:22;;;;;;;13.53;9.80;;;5.00;92.50;;;;;;937340;152;27425;-74
2022/01/15 04:23:49;;;;;;;13.80;8.53;;;5.00;92.50;;;;;;937344;151;27348;-74
2022/01/15 04:26:15;;;;;;;15.90;10.13;;;5.00;92.60;;;;;;946114;147;27381;-74
2022/01/15 04:28:42;;;;;;;15.50;9.90;;;4.90;92.70;;;;;;947925;147;27427;-74
2022/01/15 04:31:09;;;;;;;18.93;9.67;;;5.00;92.80;;;;;;948572;147;27390;-74
2022/01/15 04:33:35;;;;;;;15.77;9.37;;;5.00;92.90;;;;;;948718;147;27408;-74
2022/01/15 04:36:02;;;;;;;14.03;9.60;;;5.00;92.90;;;;;;948121;147;27812;-74
2022/01/15 04:38:30;;;;;;;15.50;10.03;;;5.00;92.90;;;;;;947297;150;27622;-74
2022/01/15 04:40:55;;;;;;;15.20;9.77;;;5.00;92.90;;;;;;947082;150;27331;-74
2022/01/15 04:43:21;;;;;;;13.43;9.00;;;5.00;92.80;;;;;;946278;147;27343;-74
2022/01/15 04:45:48;;;;;;;13.63;10.00;;;5.00;92.70;;;;;;946875;148;27283;-74
2022/01/15 04:48:15;;;;;;;14.90;10.10;;;5.00;92.70;;;;;;947252;150;27681;-74
2022/01/15 04:50:41;;;;;;;13.73;8.87;;;5.00;92.70;;;;;;945758;150;27789;-74
2022/01/15 04:53:09;;;;;;;13.87;9.33;;;5.00;92.60;;;;;;946986;148;27945;-74
2022/01/15 04:55:37;;;;;;;12.30;8.90;;;5.00;92.70;;;;;;945668;149;27265;-74
2022/01/15 04:58:04;;;;;;;13.27;9.10;;;5.00;92.80;;;;;;947125;150;27896;-74
2022/01/15 05:00:30;;;;;;;12.40;8.87;;;5.00;93.00;;;;;;948783;149;27759;-74
2022/01/15 05:03:00;;;;;;;13.23;9.43;;;5.00;93.00;;;;;;947322;148;27309;-74
2022/01/15 05:05:26;;;;;;;10.80;8.37;;;5.00;92.90;;;;;;947838;150;27418;-74
2022/01/15 05:07:53;;;;;;;12.07;8.63;;;5.00;92.90;;;;;;946427;150;27296;-74
2022/01/15 05:10:21;;;;;;;11.80;8.57;;;5.00;92.90;;;;;;947684;150;27307;-74
2022/01/15 05:12:48;;;;;;;14.23;8.63;;;5.00;93.00;;;;;;947726;149;27354;-74
2022/01/15 05:15:13;;;;;;;9.60;7.83;;;5.10;93.00;;;;;;946843;150;28013;-74
2022/01/15 05:17:39;;;;;;;13.97;8.67;;;5.00;92.90;;;;;;946990;150;27226;-74
2022/01/15 05:20:06;;;;;;;13.67;8.73;;;5.10;92.90;;;;;;945417;149;27312;-74
2022/01/15 05:22:34;;;;;;;14.13;8.73;;;5.10;93.00;;;;;;945799;150;27342;-74
2022/01/15 05:24:59;;;;;;;11.13;7.73;;;5.10;92.90;;;;;;947791;149;27379;-74
2022/01/15 05:27:26;;;;;;;10.93;7.90;;;5.10;93.00;;;;;;949019;150;27517;-74
2022/01/15 05:29:52;;;;;;;11.80;8.10;;;5.10;93.00;;;;;;947155;148;27332;-74
2022/01/15 05:32:23;;;;;;;12.60;7.93;;;5.10;93.00;;;;;;946672;150;27377;-74
2022/01/15 05:34:46;;;;;;;10.53;7.73;;;5.20;93.10;;;;;;946934;149;27322;-74
2022/01/15 05:37:12;;;;;;;10.07;7.50;;;5.20;93.10;;;;;;947706;148;27455;-74
2022/01/15 05:39:39;;;;;;;12.03;7.93;;;5.20;93.10;;;;;;946214;148;27362;-74
2022/01/15 05:42:05;;;;;;;10.87;7.30;;;5.20;93.10;;;;;;947057;150;27785;-74
2022/01/15 05:44:35;;;;;;;9.80;7.63;;;5.20;93.20;;;;;;945837;150;27303;-73
2022/01/15 05:47:01;;;;;;;10.70;8.10;;;5.20;93.30;;;;;;946972;150;27331;-74
2022/01/15 05:49:29;;;;;;;11.00;7.90;;;5.30;93.50;;;;;;946072;150;27444;-74
2022/01/15 05:51:54;;;;;;;10.30;7.17;;;5.20;93.50;;;;;;945678;147;28076;-74
2022/01/15 05:54:21;;;;;;;11.57;7.83;;;5.30;93.60;;;;;;948102;150;27315;-74
2022/01/15 05:56:47;;;;;;;11.57;8.20;;;5.30;93.60;;;;;;947005;148;27329;-74
2022/01/15 05:59:14;;;;;;;10.30;7.70;;;5.30;93.60;;;;;;948627;150;27261;-74
2022/01/15 06:01:41;;;;;;;12.67;9.33;;;5.40;93.60;;;;;;947738;147;27441;-74
2022/01/15 06:04:07;;;;;;;11.63;8.13;;;5.40;93.60;;;;;;949095;150;27435;-74
2022/01/15 06:06:34;;;;;;;10.60;8.03;;;5.40;93.40;;;;;;946817;150;27289;-74
2022/01/15 06:09:00;;;;;;;14.00;9.73;;;5.50;93.30;;;;;;947614;149;27384;-74
2022/01/15 06:11:27;;;;;;;12.87;8.73;;;5.50;93.30;;;;;;947305;147;27263;-74
2022/01/15 06:13:54;;;;;;;13.27;9.30;;;5.50;93.20;;;;;;946191;149;27341;-74
2022/01/15 06:16:23;;;;;;;14.27;9.27;;;5.50;93.20;;;;;;946448;147;27385;-74
2022/01/15 06:18:49;;;;;;;13.33;9.40;;;5.50;93.10;;;;;;946465;150;27376;-74
2022/01/15 06:21:16;;;;;;;17.17;9.50;;;5.50;93.20;;;;;;946023;148;27451;-74
2022/01/15 06:23:43;;;;;;;14.63;9.30;;;5.50;93.10;;;;;;948412;150;27382;-74
2022/01/15 06:26:09;;;;;;;12.97;9.97;;;5.40;93.10;;;;;;947227;149;27385;-74
2022/01/15 06:28:36;;;;;;;13.43;8.33;;;5.50;93.20;;;;;;948017;147;27452;-74
2022/01/15 06:31:02;;;;;;;14.00;8.90;;;5.50;93.10;;;;;;947995;148;27810;-74
2022/01/15 06:33:29;;;;;;;13.87;9.00;;;5.50;93.10;;;;;;947707;150;27431;-74
2022/01/15 06:35:59;;;;;;;16.20;10.50;;;5.40;93.10;;;;;;945589;150;27830;-74
2022/01/15 06:38:25;;;;;;;14.43;9.00;;;5.50;93.10;;;;;;946981;147;27355;-74
2022/01/15 06:40:52;;;;;;;14.97;9.00;;;5.50;93.20;;;;;;947539;150;27793;-73
2022/01/15 06:43:18;;;;;;;14.30;8.70;;;5.50;93.20;;;;;;946141;150;27417;-74
2022/01/15 06:45:45;;;;;;;12.50;8.70;;;5.50;93.20;;;;;;947807;150;27399;-74
2022/01/15 06:48:11;;;;;;;13.53;9.27;;;5.50;93.30;;;;;;948560;147;27308;-74
2022/01/15 06:50:38;;;;;;;15.73;8.73;;;5.50;93.30;;;;;;948841;150;27739;-74
2022/01/15 06:53:07;;;;;;;14.03;9.53;;;5.50;93.30;;;;;;947414;147;27361;-74
2022/01/15 06:55:34;;;;;;;15.43;8.63;;;5.50;93.30;;;;;;946627;149;27351;-74
2022/01/15 06:58:03;;;;;;;13.40;9.20;;;5.50;93.30;;;;;;948406;148;27308;-73
2022/01/15 07:00:32;;;;;;;13.00;9.23;;;5.50;93.30;;;;;;947348;150;27439;-74
2022/01/15 07:03:02;;;;;;;15.43;8.67;;;5.60;93.30;;;;;;947610;147;27787;-74
2022/01/15 07:05:28;;;;;;;11.53;8.57;;;5.60;93.30;;;;;;947978;147;27422;-74
2022/01/15 07:07:57;;;;;;;13.80;9.37;;;5.60;93.30;;;;;;947075;150;27375;-74
2022/01/15 07:10:27;;;;;;;11.77;8.83;;;5.60;93.30;;;;;;946908;150;27451;-74
2022/01/15 07:12:53;;;;;;;12.63;8.43;;;5.60;93.30;;;;;;945700;150;27731;-74
2022/01/15 07:15:20;;;;;;;13.03;8.70;;;5.60;93.20;;;;;;949080;147;27303;-74
2022/01/15 07:17:46;;;;;;;14.30;9.33;;;5.70;93.30;;;;;;946547;150;27456;-74
2022/01/15 07:20:13;;;;;;;13.27;9.27;;;5.70;93.30;;;;;;948090;149;27321;-74
2022/01/15 07:22:40;;;;;;;14.13;8.47;;;5.70;93.30;;;;;;947112;148;27346;-72
2022/01/15 07:25:06;;;;;;;14.60;9.37;;;5.70;93.30;;;;;;946994;147;27311;-73
2022/01/15 07:27:33;;;;;;;16.37;10.03;;;5.70;93.30;;;;;;942537;150;27602;-72
2022/01/15 07:30:01;;;;;;;13.87;9.27;;;5.70;93.30;;;;;;934999;151;27322;-73
2022/01/15 07:32:26;;;;;;;14.97;8.93;;;5.80;93.30;;;;;;931874;149;27616;-73
2022/01/15 07:34:53;;;;;;;11.97;8.63;;;5.80;93.30;;;;;;934968;149;27365;-73
2022/01/15 07:37:19;;;;;;;13.00;9.20;;;5.80;93.30;;;;;;934799;149;27355;-73
2022/01/15 07:39:46;;;;;;;14.50;9.10;;;5.80;93.30;;;;;;934554;150;27318;-73
2022/01/15 07:42:14;;;;;;;11.47;8.33;;;5.80;93.30;;;;;;933687;152;27319;-73
2022/01/15 07:44:39;;;;;;;13.27;8.47;;;5.80;93.20;;;;;;935797;149;27306;-73
2022/01/15 07:47:06;;;;;;;14.37;8.77;;;5.90;93.20;;;;;;934750;149;27825;-73
2022/01/15 07:49:32;;;;;;;13.27;9.23;;;5.90;93.20;;;;;;933696;151;27370;-73
2022/01/15 07:51:59;;;;;;;14.40;9.13;;;5.90;93.20;;;;;;934360;151;27341;-73
2022/01/15 07:54:25;;;;;;;12.77;9.43;;;5.90;93.10;;;;;;933667;151;27352;-73
2022/01/15 07:56:55;;;;;;;12.93;8.57;;;5.90;93.10;;;;;;934637;150;27447;-73
2022/01/15 07:59:21;;;;;;;12.97;9.53;;;6.00;93.20;;;;;;934175;149;27393;-73
2022/01/15 08:01:48;;;;;;;12.17;8.27;;;5.90;93.20;;;;;;933766;151;28859;-73
2022/01/15 08:04:14;;;;;;;13.60;8.93;;;6.00;93.20;;;;;;932889;152;27337;-73
2022/01/15 08:06:41;;;;;;;18.63;9.93;;;6.00;93.20;;;;;;936182;152;27382;-74
2022/01/15 08:09:07;;;;;;;12.93;8.93;;;6.00;93.20;;;;;;934681;151;27381;-73
2022/01/15 08:11:37;;;;;;;13.87;9.73;;;6.10;93.30;;;;;;935786;152;27340;-73
2022/01/15 08:14:04;;;;;;;13.60;9.97;;;6.10;93.30;;;;;;934371;150;28370;-73
2022/01/15 08:16:30;;;;;;;14.67;9.53;;;6.10;93.30;;;;;;936752;151;27257;-73
2022/01/15 08:18:57;;;;;;;12.53;8.77;;;6.10;93.30;;;;;;933925;149;27926;-73
2022/01/15 08:21:23;;;;;;;13.00;9.30;;;6.20;93.30;;;;;;935653;148;27329;-73
2022/01/15 08:23:50;;;;;;;12.57;8.93;;;6.20;93.30;;;;;;934614;149;27428;-73
2022/01/15 08:26:17;;;;;;;13.07;9.37;;;6.20;93.40;;;;;;933967;149;27458;-73
2022/01/15 08:28:44;;;;;;;12.93;9.37;;;6.30;93.40;;;;;;935703;149;27443;-73
2022/01/15 08:31:10;;;;;;;17.90;10.63;;;6.30;93.40;;;;;;934831;149;27394;-73
2022/01/15 08:33:36;;;;;;;14.43;9.97;;;6.40;93.40;;;;;;936147;149;27389;-73
2022/01/15 08:36:03;;;;;;;13.57;8.43;;;6.40;93.40;;;;;;933824;148;27854;-74
2022/01/15 08:38:29;;;;;;;13.30;9.63;;;6.40;93.40;;;;;;935422;149;27349;-73
2022/01/15 08:40:56;;;;;;;13.83;9.50;;;6.50;93.30;;;;;;936380;149;27369;-73
2022/01/15 08:43:23;;;;;;;15.07;9.87;;;6.50;93.20;;;;;;935691;149;27359;-73
2022/01/15 08:45:50;;;;;;;14.70;10.07;;;6.60;93.20;;;;;;935458;149;27397;-73
2022/01/15 08:48:19;;;;;;;12.43;9.17;;;6.60;93.10;;;;;;934234;149;27458;-73
2022/01/15 08:50:42;;;;;;;12.83;9.63;;;6.70;93.10;;;;;;934000;149;27763;-73
2022/01/15 08:53:09;;;;;;;15.73;10.33;;;6.70;93.00;;;;;;934807;149;28518;-74
2022/01/15 08:55:36;;;;;;;15.73;10.50;;;6.80;93.00;;;;;;935148;149;27360;-73
2022/01/15 08:58:02;;;;;;;14.40;10.17;;;6.80;93.00;;;;;;934899;150;27829;-73
2022/01/15 09:00:29;;;;;;;18.83;10.40;;;6.80;92.90;;;;;;933870;149;27336;-73
2022/01/15 09:03:02;;;;;;;13.50;9.90;;;6.90;92.90;;;;;;935899;149;27357;-73
2022/01/15 09:05:29;;;;;;;14.70;10.07;;;6.90;93.00;;;;;;935330;149;27254;-73
2022/01/15 09:07:56;;;;;;;14.57;10.23;;;6.90;93.00;;;;;;935498;149;27412;-73
2022/01/15 09:10:21;;;;;;;13.70;9.90;;;7.00;93.00;;;;;;934566;149;27321;-73
2022/01/15 09:12:47;;;;;;;11.30;8.77;;;7.00;92.90;;;;;;936517;149;27353;-73
2022/01/15 09:15:15;;;;;;;8.80;7.23;;;7.10;92.90;;;;;;936498;149;27474;-73
2022/01/15 09:17:41;;;;;;;11.97;7.27;;;7.10;92.80;;;;;;935618;149;27436;-73
2022/01/15 09:20:07;;;;;;;12.33;7.97;;;7.10;92.70;;;;;;934052;151;27330;-73
2022/01/15 09:22:34;;;;;;;12.60;7.97;;;7.20;92.60;;;;;;935567;151;27318;-73
2022/01/15 09:25:00;;;;;;;12.60;8.60;;;7.20;92.60;;;;;;936966;151;27395;-74
2022/01/15 09:30:18;;;;;;;9.73;7.47;;;7.30;92.50;;;;;;936052;150;27440;-73
2022/01/15 09:32:44;;;;;;;12.50;8.07;;;7.30;92.50;;;;;;934594;152;27432;-73
2022/01/15 09:35:13;;;;;;;12.57;8.77;;;7.40;92.50;;;;;;936055;150;27425;-73
2022/01/15 09:37:40;;;;;;;12.00;7.97;;;7.40;92.40;;;;;;934433;150;27286;-73
2022/01/15 09:40:07;;;;;;;9.93;7.47;;;7.40;92.40;;;;;;934093;150;27431;-73
2022/01/15 09:42:34;;;;;;;11.97;7.43;;;7.50;92.50;;;;;;934310;151;27631;-73
2022/01/15 09:45:00;;;;;;;11.47;8.37;;;7.50;92.50;;;;;;935717;152;27432;-73
2022/01/15 09:47:27;;;;;;;12.43;9.17;;;7.50;92.40;;;;;;936038;151;27305;-73
2022/01/15 09:49:53;;;;;;;11.77;9.00;;;7.60;92.30;;;;;;935638;149;27833;-73
2022/01/15 09:52:20;;;;;;;13.93;9.53;;;7.60;92.30;;;;;;937312;150;27422;-74
2022/01/15 09:54:46;;;;;;;11.83;8.60;;;7.60;92.20;;;;;;933297;149;27372;-73
2022/01/15 09:57:13;;;;;;;14.27;8.97;;;7.70;92.20;;;;;;934964;150;27424;-73
2022/01/15 09:59:42;;;;;;;10.50;8.10;;;7.70;92.20;;;;;;935054;151;27334;-73
2022/01/15 10:02:09;;;;;;;13.33;9.20;;;7.70;92.10;;;;;;936116;150;27294;-73
2022/01/15 10:04:35;;;;;;;11.80;8.73;;;7.80;92.10;;;;;;935751;150;27361;-73
2022/01/15 10:07:11;;;;;;;11.20;9.07;;;7.80;92.00;;;;;;936642;150;27353;-73
2022/01/15 10:09:37;;;;;;;10.67;8.23;;;7.80;92.00;;;;;;932991;150;27421;-73
2022/01/15 10:12:04;;;;;;;11.87;8.60;;;7.90;91.90;;;;;;934073;150;27430;-73
2022/01/15 10:14:39;;;;;;;11.47;8.30;;;7.90;91.80;;;;;;931450;150;27377;-73
2022/01/15 10:17:26;;;;;;;11.33;7.77;;;7.90;91.80;;;;;;934111;151;27429;-73
2022/01/15 10:19:53;;;;;;;9.20;7.67;;;7.90;91.80;;;;;;934824;152;27711;-73
2022/01/15 10:22:20;;;;;;;8.30;7.03;;;8.00;91.70;;;;;;934031;152;27396;-73
2022/01/15 10:24:58;;;;;;;7.93;6.60;;;8.00;91.70;;;;;;931969;151;27339;-73
2022/01/15 10:27:25;;;;;;;8.40;6.70;;;8.00;91.70;;;;;;935347;152;27344;-74
2022/01/15 10:30:10;;;;;;;8.70;6.93;;;8.00;91.70;;;;;;936042;152;27418;-73
2022/01/15 10:32:39;;;;;;;9.83;6.60;;;8.10;91.70;;;;;;934016;149;27326;-73
2022/01/15 10:35:14;;;;;;;7.53;5.63;;;8.10;91.60;;;;;;935385;149;27281;-73
2022/01/15 10:37:47;;;;;;;7.20;5.90;;;8.10;91.50;;;;;;932548;152;27382;-74
2022/01/15 10:40:14;;;;;;;9.57;6.00;;;8.20;91.40;;;;;;935355;152;27457;-73
2022/01/15 10:42:40;;;;;;;7.57;6.57;;;8.20;91.30;;;;;;935414;151;27365;-73
2022/01/15 10:45:09;;;;;;;6.67;5.80;;;8.30;91.20;;;;;;934879;152;27319;-74
2022/01/15 10:47:39;;;;;;;8.13;5.87;;;8.30;91.10;;;;;;936432;152;27334;-73
2022/01/15 10:50:05;;;;;;;6.93;5.43;;;8.30;91.00;;;;;;935684;152;27329;-74
2022/01/15 10:52:32;;;;;;;8.60;5.67;;;8.30;91.00;;;;;;937725;150;27369;-73
2022/01/15 10:55:15;;;;;;;8.03;5.70;;;8.40;90.90;;;;;;937153;152;27347;-74
2022/01/15 10:57:46;;;;;;;6.70;5.80;;;8.40;90.70;;;;;;935671;150;27372;-74
2022/01/15 11:00:13;;;;;;;8.70;6.77;;;8.40;90.70;;;;;;935907;152;27368;-73
2022/01/15 11:02:39;;;;;;;7.60;6.77;;;8.40;90.70;;;;;;935023;151;27434;-73
2022/01/15 11:05:21;;;;;;;6.03;5.17;;;8.40;90.60;;;;;;935683;151;27837;-73
2022/01/15 11:07:47;;;;;;;6.03;5.43;;;8.40;90.80;;;;;;932597;151;27320;-74
2022/01/15 11:10:17;;;;;;;6.60;5.57;;;8.50;90.30;;;;;;935924;152;27401;-74
2022/01/15 11:12:43;;;;;;;5.93;5.30;;;8.50;90.20;;;;;;935148;151;27266;-74
2022/01/15 11:15:10;;;;;;;6.20;5.60;;;8.40;90.10;;;;;;936177;150;27413;-74
2022/01/15 11:17:36;;;;;;;4.60;4.10;;;8.40;90.00;;;;;;935609;151;27361;-73
2022/01/15 11:20:06;;;;;;;4.30;3.90;;;8.40;90.00;;;;;;936825;152;27328;-73
2022/01/15 11:22:33;;;;;;;4.10;3.53;;;8.40;89.70;;;;;;937450;149;27337;-73
2022/01/15 11:24:59;;;;;;;5.37;4.87;;;8.40;89.50;;;;;;935981;152;27456;-73
2022/01/15 11:27:32;;;;;;;4.73;4.23;;;8.40;89.30;;;;;;936409;151;27876;-74
2022/01/15 11:29:58;;;;;;;5.73;4.30;;;8.30;89.40;;;;;;936515;151;27760;-73
2022/01/15 11:32:28;;;;;;;5.23;4.43;;;8.30;89.50;;;;;;936347;151;27433;-73
2022/01/15 11:35:03;;;;;;;5.00;4.47;;;8.30;89.70;;;;;;936231;151;27436;-74
2022/01/15 11:37:30;;;;;;;6.10;3.80;;;8.30;89.90;;;;;;935902;150;27331;-74
2022/01/15 11:39:56;;;;;;;3.17;2.87;;;8.20;89.90;;;;;;933809;151;27354;-74
2022/01/15 11:42:26;;;;;;;3.20;2.90;;;8.20;89.60;;;;;;936261;152;27327;-74
2022/01/15 11:44:52;;;;;;;3.20;2.90;;;8.20;89.20;;;;;;935305;152;27257;-73
2022/01/15 11:47:21;;;;;;;2.53;2.30;;;8.20;89.90;;;;;;936211;152;27299;-73
2022/01/15 11:49:45;;;;;;;3.10;2.90;;;8.20;89.10;;;;;;935931;151;27313;-74
2022/01/15 11:52:13;;;;;;;3.30;3.00;;;8.10;89.10;;;;;;935193;150;27317;-74
2022/01/15 11:54:51;;;;;;;3.23;2.93;;;8.10;89.40;;;;;;936315;152;27336;-74
2022/01/15 11:57:23;;;;;;;3.00;2.80;;;8.10;89.50;;;;;;936939;152;27425;-73
2022/01/15 11:59:49;;;;;;;3.20;2.73;;;8.10;89.60;;;;;;937254;152;27406;-73
2022/01/15 12:02:31;;;;;;;2.73;2.47;;;8.10;90.00;;;;;;937440;152;27352;-73
2022/01/15 12:05:17;;;;;;;2.00;1.90;;;8.10;90.00;;;;;;936714;152;27362;-73
2022/01/15 12:08:01;;;;;;;2.40;2.20;;;8.10;90.00;;;;;;935767;151;27360;-73
2022/01/15 12:10:45;;;;;;;2.60;2.40;;;8.10;90.00;;;;;;935721;151;27369;-73
2022/01/15 12:13:12;;;;;;;2.73;2.50;;;8.10;90.00;;;;;;934604;151;27304;-73
2022/01/15 12:15:38;;;;;;;2.53;2.33;;;8.20;89.90;;;;;;937531;152;27449;-73
2022/01/15 12:18:17;;;;;;;2.53;2.20;;;8.10;89.80;;;;;;936482;151;27297;-73
2022/01/15 12:20:43;;;;;;;2.00;1.90;;;8.10;89.60;;;;;;934371;152;27340;-75
2022/01/15 12:23:19;;;;;;;2.67;1.83;;;8.10;89.40;;;;;;936169;152;27467;-73
2022/01/15 12:25:46;;;;;;;1.70;1.60;;;8.20;89.50;;;;;;935349;149;27864;-73
2022/01/15 12:28:14;;;;;;;1.70;1.60;;;8.10;89.20;;;;;;936264;151;27312;-73
2022/01/15 12:30:42;;;;;;;2.50;2.17;;;8.10;89.10;;;;;;936977;149;27465;-73
2022/01/15 12:33:09;;;;;;;2.40;2.13;;;8.10;89.20;;;;;;936997;150;27372;-73
2022/01/15 12:35:35;;;;;;;2.00;1.90;;;8.10;89.40;;;;;;936668;152;27332;-73
2022/01/15 12:38:15;;;;;;;1.73;1.63;;;8.10;89.20;;;;;;934212;152;27269;-73
2022/01/15 12:40:55;;;;;;;1.73;1.63;;;8.10;89.20;;;;;;936624;150;27256;-73
2022/01/15 12:43:28;;;;;;;1.60;1.50;;;8.10;88.90;;;;;;935983;150;27825;-73
2022/01/15 12:45:54;;;;;;;1.60;1.50;;;8.00;88.70;;;;;;937065;152;27438;-73
2022/01/15 12:48:20;;;;;;;1.70;1.60;;;8.00;88.70;;;;;;934995;150;27356;-73
2022/01/15 12:50:47;;;;;;;2.07;1.97;;;8.00;88.70;;;;;;934955;149;27748;-73
2022/01/15 12:53:14;;;;;;;2.20;2.00;;;7.90;88.90;;;;;;935645;151;27338;-73
2022/01/15 12:55:40;;;;;;;2.10;1.90;;;7.90;89.10;;;;;;936082;150;27317;-73
2022/01/15 12:58:07;;;;;;;1.90;1.80;;;7.90;89.10;;;;;;935697;151;27423;-75
2022/01/15 13:00:33;;;;;;;1.63;1.53;;;7.90;88.90;;;;;;935081;151;27431;-75
2022/01/15 13:03:00;;;;;;;1.73;1.63;;;7.90;88.70;;;;;;934584;149;27344;-73
2022/01/15 13:05:29;;;;;;;2.30;2.10;;;7.80;88.60;;;;;;936454;152;27305;-75
2022/01/15 13:08:05;;;;;;;1.87;1.77;;;7.80;88.70;;;;;;936448;151;27430;-73
2022/01/15 13:10:47;;;;;;;1.97;1.83;;;7.80;88.80;;;;;;936454;152;27445;-73
2022/01/15 13:13:10;;;;;;;2.27;2.07;;;7.70;88.80;;;;;;936783;150;27292;-73
2022/01/15 13:15:36;;;;;;;2.20;2.00;;;7.70;88.80;;;;;;934055;152;27948;-73
2022/01/15 13:18:03;;;;;;;2.00;1.90;;;7.70;88.80;;;;;;938059;151;27408;-76
2022/01/15 13:20:35;;;;;;;1.73;1.63;;;7.60;89.00;;;;;;934833;152;27422;-73
2022/01/15 13:23:02;;;;;;;1.80;1.70;;;7.60;89.00;;;;;;936365;152;27428;-73